Airfield :
LOGIN :

Register | Disclaimer

   EN    FR    IT 

 










Legend :    VFR   Marginal VFR   IFR   Intensive IFR   Very Intensive IFR
Visi :
Ceiling :
>= 8 km
>= 3000ft
5 to 8 km
1000 to 3000 ft
1500m to 5 km
500 to 1000 ft
800 to 1500m
200 to 500 ft
< 800m
< 200 ft
Symbols :   Thunderstorms  Fog  Heavy snow  Heavy precipitations  Wind > 20 kt
SIGMETs :     Misc.  Thunderstorms  Icing  Turbulence  Mountain Waves  Volcanic Ashes






- Airport Elevation : 529 ft
- IATA code : CHR


LFLX - Chateauroux

CURRENT METAR :
  • 011330Z AUTO 27013KT 9999 RA SCT027/// BKN034/// BKN078/// ///CB 17/11 Q1015 TEMPO 2500 SHRA

EXPIRED METARs :
  • 011300Z AUTO 29007KT 230V310 9999 FEW021/// OVC098/// ///CB 19/14 Q1014 TEMPO 2500 SHRA
  • 011230Z AUTO 28004KT 250V320 9999 FEW033/// SCT054/// BKN076/// ///CB 18/13 Q1014 TEMPO 2500 SHRA
  • 011200Z AUTO 28013KT 9999 -RA FEW030/// SCT052/// BKN066/// ///CB 15/12 Q1014 TEMPO 4000 -SHRA
  • 011130Z AUTO 22007KT 190V250 9999 FEW040/// BKN088/// ///TCU 18/14 Q1014 TEMPO 4000 -SHRA
  • 011100Z AUTO 24008KT 9999 RA FEW022/// SCT068/// OVC088/// ///CB 18/14 Q1014 TEMPO 4000 -SHRA

TAF AMD TAF LFLX
Valid from the 01 at 12:00 until the 02 at 18:00 UTC


011216Z 0112/0218 25008KT 9999 BKN030
TEMPO 0112/0119 4000 -SHRA BKN025TCU
PROB40
TEMPO 0112/0118 2500 SHRA BKN030CB
PROB30
TEMPO 0204/0206 4000 BR
BECMG 0206/0208 BKN014
BECMG 0208/0210 BKN030TCU



MET'MAP, your aeronautical weather chart ! - Copyright ORBIFLY December 2007 - Disclaimer

ORBIFLY MET'MAP TEAM :

Programming & Development : Alexandra Zaïnal
Concept & original design : Baudouin d'Aumeries
Assistance for programming : Marc-Olivier Méhu
Technical & hardware support : Manuel Goepfert

Contact : metmap@orbifly.com




SOURCES & CREDITS :

   NOAA